Isola Bianca — ICLD — position and weather

sailwx.info

Track history (hours):
 
Tides and Currents Weather Stations Pressure Air Temp Water Temp Dewpoint Dewpoint Depression Visibility Wind Speed Wind Dir Waves Ship Positions

Isola Bianca

Last reported at 2018-Apr-23 12:51 UTC. Time now 2018-Apr-25 10:44 UTC.
Position N 11°13' W 018°28'.

Length 183 m; draft 8.5 m.

Type: Ship. MMSI: 247245200.

Date/timePositionNaut miles runAvg speedWind from/ knotsBaromVisibWave heightAir tempDewpointWater temp
2018-Apr-23 12:51N 11°13' W 018°28'412.2
2018-Apr-23 12:30N 11°10' W 018°26'612.1
2018-Apr-23 11:58N 11°04' W 018°22'612.3
2018-Apr-23 11:30N 10°59' W 018°19'612.3
2018-Apr-23 11:01N 10°53' W 018°17'712.3
2018-Apr-23 10:25N 10°47' W 018°13'612.3
2018-Apr-23 09:57N 10°42' W 018°11'512.4
2018-Apr-23 09:30N 10°37' W 018°08'612.3
2018-Apr-23 09:01N 10°31' W 018°06'3312.7
2018-Apr-23 06:24N 10°05' W 017°46'512.6
2018-Apr-23 06:00N 10°01' W 017°42'812.6
2018-Apr-23 05:24N 09°55' W 017°37'712.4
2018-Apr-23 04:49N 09°50' W 017°32'512.6
2018-Apr-23 04:27N 09°46' W 017°29'612.7
2018-Apr-23 04:01N 09°42' W 017°26'612.9
2018-Apr-23 03:30N 09°37' W 017°21'612.8
2018-Apr-23 03:00N 09°33' W 017°17'612.9
2018-Apr-23 02:30N 09°28' W 017°13'612.9
2018-Apr-23 02:00N 09°23' W 017°08'712.9
2018-Apr-23 01:30N 09°18' W 017°04'612.8
2018-Apr-23 01:00N 09°13' W 016°60'612.8
2018-Apr-23 00:30N 09°08' W 016°56'712.7
2018-Apr-22 23:59N 09°03' W 016°51'712.8
2018-Apr-22 23:27N 08°58' W 016°47'612.9
2018-Apr-22 23:00N 08°54' W 016°43'612.7
2018-Apr-22 22:30N 08°49' W 016°39'612.6
2018-Apr-22 22:00N 08°44' W 016°34'612.5
2018-Apr-22 21:30N 08°40' W 016°30'612.5
2018-Apr-22 21:00N 08°35' W 016°26'612.5
2018-Apr-22 20:30N 08°31' W 016°21'612.6
2018-Apr-22 20:00N 08°26' W 016°17'612.6
2018-Apr-22 19:30N 08°21' W 016°13'612.4
2018-Apr-22 19:00N 08°17' W 016°09'612.6
2018-Apr-22 18:30N 08°12' W 016°05'712.7
2018-Apr-22 17:56N 08°06' W 016°00'612.7
2018-Apr-22 17:26N 08°01' W 015°56'512.5
2018-Apr-22 17:00N 07°57' W 015°53'612.8
2018-Apr-22 16:30N 07°52' W 015°49'612.8
2018-Apr-22 16:00N 07°47' W 015°44'1712.8
2018-Apr-22 14:41N 07°35' W 015°33'313.1
2018-Apr-22 14:29N 07°33' W 015°31'713.0
2018-Apr-22 13:59N 07°28' W 015°27'712.9
2018-Apr-22 13:28N 07°23' W 015°23'613.0
2018-Apr-22 13:00N 07°18' W 015°19'712.9
2018-Apr-22 12:30N 07°13' W 015°14'612.9
2018-Apr-22 12:00N 07°09' W 015°10'612.9
2018-Apr-22 11:30N 07°04' W 015°06'  
2018-Apr-18 11:24N 05°07' E 000°23'712.5
2018-Apr-18 10:51N 05°13' E 000°19'412.7
2018-Apr-18 10:31N 05°16' E 000°17'612.8
2018-Apr-18 10:01N 05°22' E 000°14'712.9
2018-Apr-18 09:30N 05°28' E 000°11'612.0
2018-Apr-18 09:01N 05°33' E 000°09'510.6
2018-Apr-18 08:30N 05°38' E 000°06'2 3.9
2018-Apr-18 07:59N 05°39' E 000°04'0 0.1
2018-Apr-18 07:29N 05°39' E 000°04'0 0.0
2018-Apr-18 06:56N 05°39' E 000°04'0 0.0
2018-Apr-18 06:29N 05°39' E 000°04'0 0.0
2018-Apr-18 05:59N 05°39' E 000°04'0 0.0
2018-Apr-18 05:29N 05°39' E 000°04'0 0.0
2018-Apr-18 04:59N 05°39' E 000°04'0 0.0
2018-Apr-18 04:29N 05°39' E 000°04'0 0.0
2018-Apr-18 03:59N 05°39' E 000°04'0 0.0
2018-Apr-18 03:29N 05°39' E 000°04'0 0.0
2018-Apr-18 02:59N 05°39' E 000°04'0 0.0
2018-Apr-18 02:29N 05°39' E 000°04'0 0.0
2018-Apr-18 01:59N 05°39' E 000°04'0 0.0
2018-Apr-18 01:29N 05°39' E 000°04'0 0.0
2018-Apr-18 00:59N 05°39' E 000°04'0 0.0
2018-Apr-18 00:29N 05°39' E 000°04'0 0.0
2018-Apr-17 23:59N 05°39' E 000°04'0 0.0
2018-Apr-17 23:29N 05°39' E 000°04'0 0.0
2018-Apr-17 22:59N 05°39' E 000°04'0 0.0
2018-Apr-17 22:29N 05°39' E 000°04'0 0.0
2018-Apr-17 21:59N 05°39' E 000°04'0 0.0
2018-Apr-17 21:29N 05°39' E 000°04'0 0.0
2018-Apr-17 20:59N 05°39' E 000°04'0 0.0
2018-Apr-17 20:29N 05°39' E 000°04'0 0.0
2018-Apr-17 19:59N 05°39' E 000°04'0 0.0
2018-Apr-17 19:29N 05°39' E 000°04'0 0.0
2018-Apr-17 18:59N 05°39' E 000°04'0 0.0
2018-Apr-17 18:29N 05°39' E 000°04'0 0.0
2018-Apr-17 17:59N 05°39' E 000°04'0 0.0
2018-Apr-17 17:29N 05°39' E 000°04'0 0.0
2018-Apr-17 16:59N 05°39' E 000°04'0 0.0
2018-Apr-17 16:29N 05°39' E 000°04'0 0.0
2018-Apr-17 15:59N 05°39' E 000°04'0 0.0
2018-Apr-17 15:29N 05°39' E 000°04'0 0.0
2018-Apr-17 14:59N 05°39' E 000°04'0 0.0
2018-Apr-17 14:29N 05°39' E 000°04'0 0.0
2018-Apr-17 13:59N 05°39' E 000°04'0 0.0
2018-Apr-17 13:29N 05°39' E 000°04'0 0.0
2018-Apr-17 12:59N 05°39' E 000°04'0 0.0
2018-Apr-17 12:29N 05°39' E 000°04'0 0.0
2018-Apr-17 11:59N 05°39' E 000°04'0 0.0
2018-Apr-17 11:29N 05°39' E 000°04'0 0.0
2018-Apr-17 10:59N 05°39' E 000°04'0 0.0
2018-Apr-17 10:29N 05°39' E 000°04'0 0.0
2018-Apr-17 09:59N 05°39' E 000°04'0 0.0
2018-Apr-17 09:29N 05°39' E 000°04'0 0.0
2018-Apr-17 08:59N 05°39' E 000°04'0 0.0
2018-Apr-17 08:29N 05°39' E 000°04'0 0.0
2018-Apr-17 07:59N 05°39' E 000°04'0 0.0
2018-Apr-17 07:29N 05°39' E 000°04'0 0.0
2018-Apr-17 06:59N 05°39' E 000°04'0 0.0
2018-Apr-17 06:29N 05°39' E 000°04'0 0.0
2018-Apr-17 05:59N 05°39' E 000°04'0 0.0
2018-Apr-17 05:29N 05°39' E 000°04'0 0.0
2018-Apr-17 04:59N 05°39' E 000°04'0 0.0
2018-Apr-17 04:29N 05°39' E 000°04'0 0.0
2018-Apr-17 03:59N 05°39' E 000°04'0 0.0
2018-Apr-17 03:29N 05°39' E 000°04'0 0.0
2018-Apr-17 02:59N 05°39' E 000°04'0 0.0
2018-Apr-17 02:29N 05°39' E 000°04'0 0.0
2018-Apr-17 01:59N 05°39' E 000°04'0 0.0
2018-Apr-17 01:29N 05°39' E 000°04'0 0.0
2018-Apr-17 00:59N 05°39' E 000°04'0 0.0
2018-Apr-17 00:29N 05°39' E 000°04'0 0.0
2018-Apr-16 23:59N 05°39' E 000°04'0 0.0
2018-Apr-16 23:29N 05°39' E 000°04'0 0.0
2018-Apr-16 22:59N 05°39' E 000°04'0 0.0
2018-Apr-16 22:29N 05°39' E 000°04'0 0.0
2018-Apr-16 21:59N 05°39' E 000°04'0 0.0
2018-Apr-16 21:29N 05°39' E 000°04'0 0.0
2018-Apr-16 20:59N 05°39' E 000°04'0 0.0
2018-Apr-16 20:29N 05°39' E 000°04'0 0.0
2018-Apr-16 19:59N 05°39' E 000°04'0 0.0
2018-Apr-16 19:29N 05°39' E 000°04'0 0.0
2018-Apr-16 18:59N 05°39' E 000°04'0 0.0
2018-Apr-16 18:29N 05°39' E 000°04'0 0.0
2018-Apr-16 17:59N 05°39' E 000°04'0 0.0
2018-Apr-16 17:29N 05°39' E 000°04'0 0.0
2018-Apr-16 16:59N 05°39' E 000°04'0 0.0
2018-Apr-16 16:29N 05°39' E 000°04'0 0.0
2018-Apr-16 15:59N 05°39' E 000°04'0 0.0
2018-Apr-16 15:29N 05°39' E 000°04'0 0.0
2018-Apr-16 14:59N 05°39' E 000°04'0 0.0
2018-Apr-16 14:29N 05°39' E 000°04'0 0.0
2018-Apr-16 13:59N 05°39' E 000°04'0 0.0
2018-Apr-16 12:38N 05°39' E 000°04'0 0.0
2018-Apr-16 12:29N 05°39' E 000°04'0 0.0
2018-Apr-16 11:59N 05°39' E 000°04'0 0.0
2018-Apr-16 11:29N 05°39' E 000°04'0 0.0
2018-Apr-16 10:59N 05°39' E 000°04'0 0.0
2018-Apr-16 10:29N 05°39' E 000°04'0 0.0
2018-Apr-16 09:56N 05°39' E 000°04'0 0.0
2018-Apr-16 09:29N 05°39' E 000°04'0 0.0
2018-Apr-16 08:59N 05°39' E 000°04'0 0.0
2018-Apr-16 08:29N 05°39' E 000°04'0 0.0
2018-Apr-16 07:59N 05°39' E 000°04'0 0.0
2018-Apr-16 07:29N 05°39' E 000°04'0 0.0
2018-Apr-16 06:59N 05°39' E 000°04'0 0.0
2018-Apr-16 06:29N 05°39' E 000°04'0 0.0
2018-Apr-16 05:59N 05°39' E 000°04'0 0.0
2018-Apr-16 05:29N 05°39' E 000°04'0 0.0
2018-Apr-16 04:59N 05°39' E 000°04'0 0.0
2018-Apr-16 04:29N 05°39' E 000°04'0 0.0
2018-Apr-16 03:59N 05°39' E 000°04'0 0.0
2018-Apr-16 03:29N 05°39' E 000°04'0 0.0
2018-Apr-16 02:59N 05°39' E 000°04'0 0.0
2018-Apr-16 02:29N 05°39' E 000°04'0 0.0
2018-Apr-16 01:59N 05°39' E 000°04'0 0.0
2018-Apr-16 01:29N 05°39' E 000°04'0 0.0
2018-Apr-16 00:59N 05°39' E 000°04'0 0.0
2018-Apr-16 00:29N 05°39' E 000°04'0 0.0
2018-Apr-15 23:59N 05°39' E 000°04'0 0.0
2018-Apr-15 23:29N 05°39' E 000°04'0 0.0
2018-Apr-15 22:59N 05°39' E 000°04'0 0.0
2018-Apr-15 22:29N 05°39' E 000°04'0 0.0
2018-Apr-15 21:59N 05°39' E 000°04'0 0.0
2018-Apr-15 21:29N 05°39' E 000°04'0 0.0
2018-Apr-15 20:59N 05°39' E 000°04'0 0.0
2018-Apr-15 20:29N 05°39' E 000°04'0 0.0
2018-Apr-15 19:59N 05°39' E 000°04'0 0.0
2018-Apr-15 19:29N 05°39' E 000°04'0 0.0
2018-Apr-15 18:59N 05°39' E 000°04'0 0.0
2018-Apr-15 18:29N 05°39' E 000°04'0 0.0
2018-Apr-15 17:59N 05°39' E 000°04'0 0.0
2018-Apr-15 17:29N 05°39' E 000°04'0 0.0
2018-Apr-15 16:59N 05°39' E 000°04'0 0.0
2018-Apr-15 16:29N 05°39' E 000°04'0 0.0
2018-Apr-15 15:59N 05°39' E 000°04'0 0.0
2018-Apr-15 15:29N 05°39' E 000°04'0 0.0
2018-Apr-15 14:59N 05°39' E 000°04'0 0.0
2018-Apr-15 14:29N 05°39' E 000°04'0 0.0
2018-Apr-15 13:59N 05°39' E 000°04'0 0.0
2018-Apr-15 13:29N 05°39' E 000°04'0 0.0
2018-Apr-15 12:59N 05°39' E 000°04'0 0.0
2018-Apr-15 12:29N 05°39' E 000°04'0 0.0
2018-Apr-15 12:00N 05°39' E 000°04'0 0.4
2018-Apr-15 11:30N 05°39' E 000°04'1 1.6
2018-Apr-15 11:00N 05°39' E 000°05'1 1.6
2018-Apr-15 10:30N 05°39' E 000°06'0 0.9
2018-Apr-15 10:00N 05°38' E 000°06'3 6.9
2018-Apr-15 09:31N 05°35' E 000°04'4 7.9
2018-Apr-15 09:00N 05°34' E 000°00'0 0.4
2018-Apr-15 08:29N 05°35' E 000°00'0 0.0
2018-Apr-15 07:59N 05°35' E 000°00'0 0.0
2018-Apr-15 07:29N 05°35' E 000°00'0 0.0
2018-Apr-15 06:59N 05°35' E 000°00'0 0.0
2018-Apr-15 06:29N 05°35' E 000°00'0 0.0
2018-Apr-15 05:59N 05°35' E 000°00'0 0.0
2018-Apr-15 05:29N 05°35' E 000°00'0 0.1
2018-Apr-15 04:56N 05°35' E 000°00'0 0.0
2018-Apr-15 04:29N 05°35' E 000°00'0 0.0
2018-Apr-15 03:59N 05°35' E 000°00'0 0.0
2018-Apr-15 03:29N 05°35' E 000°00'0 0.0
2018-Apr-15 02:59N 05°35' E 000°00'0 0.0
2018-Apr-15 02:29N 05°35' E 000°00'0 0.0
2018-Apr-15 01:59N 05°35' E 000°00'0 0.0
2018-Apr-15 01:29N 05°35' E 000°00'0 0.0
2018-Apr-15 00:59N 05°35' E 000°00'0 0.0
2018-Apr-15 00:29N 05°35' E 000°00'0 0.0
2018-Apr-14 23:59N 05°35' E 000°00'0 0.0
2018-Apr-14 23:29N 05°35' E 000°00'0 0.0
2018-Apr-14 22:59N 05°35' E 000°00'0 0.0
2018-Apr-14 22:29N 05°35' E 000°00'0 0.0
2018-Apr-14 21:59N 05°35' E 000°00'0 0.0
2018-Apr-14 21:29N 05°35' E 000°00'0 0.0
2018-Apr-14 20:59N 05°35' E 000°00'0 0.0
2018-Apr-14 20:29N 05°35' E 000°00'0 0.0
2018-Apr-14 19:59N 05°35' E 000°00'0 0.0
2018-Apr-14 19:29N 05°35' E 000°00'0 0.0
2018-Apr-14 18:59N 05°35' E 000°00'0 0.0
2018-Apr-14 18:29N 05°35' E 000°00'0 0.0
2018-Apr-14 17:59N 05°35' E 000°00'0 0.0
2018-Apr-14 17:29N 05°35' E 000°00'0 0.0
2018-Apr-14 16:59N 05°35' E 000°00'0 0.0
2018-Apr-14 16:29N 05°35' E 000°00'0 0.0
2018-Apr-14 15:59N 05°35' E 000°00'0 0.0
2018-Apr-14 15:29N 05°35' E 000°00'0 0.0
2018-Apr-14 14:59N 05°35' E 000°00'0 0.0
2018-Apr-14 14:29N 05°35' E 000°00'0 0.0
2018-Apr-14 13:59N 05°35' E 000°00'0 0.0
2018-Apr-14 13:29N 05°35' E 000°00'0 0.0
2018-Apr-14 12:59N 05°35' E 000°00'0 0.0
2018-Apr-14 12:29N 05°35' E 000°00'0 0.0
2018-Apr-14 11:59N 05°35' E 000°00'0 0.0
2018-Apr-14 11:29N 05°35' E 000°00'0 0.0
2018-Apr-14 10:59N 05°35' E 000°00'0 0.0
2018-Apr-14 10:29N 05°35' E 000°00'0 0.0
2018-Apr-14 09:59N 05°35' E 000°00'0 0.0
2018-Apr-14 09:29N 05°35' E 000°00'0 0.0
2018-Apr-14 08:59N 05°35' E 000°00'0 0.0
2018-Apr-14 08:29N 05°35' E 000°00'0 0.0
2018-Apr-14 07:59N 05°35' E 000°00'0 0.0
2018-Apr-14 07:29N 05°35' E 000°00'0 0.0
2018-Apr-14 06:59N 05°35' E 000°00'0 0.0
2018-Apr-14 06:29N 05°35' E 000°00'0 0.0
2018-Apr-14 05:59N 05°35' E 000°00'0 0.0
2018-Apr-14 05:29N 05°35' E 000°00'0 0.0
2018-Apr-14 04:59N 05°35' E 000°00'0 0.0
2018-Apr-14 04:29N 05°35' E 000°00'0 0.0
2018-Apr-14 03:59N 05°35' E 000°00'0 0.0
2018-Apr-14 03:29N 05°35' E 000°00'0 0.0
2018-Apr-14 02:59N 05°35' E 000°00'0 0.0
2018-Apr-14 02:29N 05°35' E 000°00'0 0.0
2018-Apr-14 01:59N 05°35' E 000°00'0 0.0
2018-Apr-14 01:29N 05°35' E 000°00'0 0.0
2018-Apr-14 00:59N 05°35' E 000°00'0 0.0
2018-Apr-14 00:29N 05°35' E 000°00'0 0.0
2018-Apr-13 23:59N 05°35' E 000°00'0 0.0
2018-Apr-13 23:29N 05°35' E 000°00'0 0.0
2018-Apr-13 22:59N 05°35' E 000°00'0 0.0
2018-Apr-13 22:29N 05°35' E 000°00'0 0.0
2018-Apr-13 21:59N 05°35' E 000°00'0 0.0
2018-Apr-13 21:29N 05°35' E 000°00'0 0.0
2018-Apr-13 20:59N 05°35' E 000°00'0 0.0
2018-Apr-13 20:29N 05°35' E 000°00'0 0.0
2018-Apr-13 19:59N 05°35' E 000°00'0 0.0
2018-Apr-13 19:29N 05°35' E 000°00'0 0.0
2018-Apr-13 18:59N 05°35' E 000°00'0 0.0
2018-Apr-13 18:29N 05°35' E 000°00'0 0.0
2018-Apr-13 17:59N 05°35' E 000°00'0 0.0
2018-Apr-13 17:29N 05°35' E 000°00'0 0.0
2018-Apr-13 16:59N 05°35' E 000°00'0 0.0
2018-Apr-13 16:29N 05°35' E 000°00'0 0.0
2018-Apr-13 15:59N 05°35' E 000°00'0 0.0
2018-Apr-13 15:29N 05°35' E 000°00'0 0.0
2018-Apr-13 14:59N 05°35' E 000°00'0 0.0
2018-Apr-13 14:29N 05°35' E 000°00'0 0.0
2018-Apr-13 13:59N 05°35' E 000°00'0 0.0
2018-Apr-13 13:29N 05°35' E 000°00'0 0.0
2018-Apr-13 12:59N 05°35' E 000°00'  
Track history (hours):
 
Tides and Currents Weather Stations Pressure Air Temp Water Temp Dewpoint Dewpoint Depression Visibility Wind Speed Wind Dir Waves Ship Positions

Isola Bianca

Last reported at 2018-Apr-23 12:51 UTC. Time now 2018-Apr-25 10:44 UTC.
Position N 11°13' W 018°28'.

Length 183 m; draft 8.5 m.

Type: Ship. MMSI: 247245200.

Date/timePositionNaut miles runAvg speedWind from/ knotsBaromVisibWave heightAir tempDewpointWater temp
2018-Apr-23 12:51N 11°13' W 018°28'412.2
2018-Apr-23 12:30N 11°10' W 018°26'612.1
2018-Apr-23 11:58N 11°04' W 018°22'612.3
2018-Apr-23 11:30N 10°59' W 018°19'612.3
2018-Apr-23 11:01N 10°53' W 018°17'712.3
2018-Apr-23 10:25N 10°47' W 018°13'612.3
2018-Apr-23 09:57N 10°42' W 018°11'512.4
2018-Apr-23 09:30N 10°37' W 018°08'612.3
2018-Apr-23 09:01N 10°31' W 018°06'3312.7
2018-Apr-23 06:24N 10°05' W 017°46'512.6
2018-Apr-23 06:00N 10°01' W 017°42'812.6
2018-Apr-23 05:24N 09°55' W 017°37'712.4
2018-Apr-23 04:49N 09°50' W 017°32'512.6
2018-Apr-23 04:27N 09°46' W 017°29'612.7
2018-Apr-23 04:01N 09°42' W 017°26'612.9
2018-Apr-23 03:30N 09°37' W 017°21'612.8
2018-Apr-23 03:00N 09°33' W 017°17'612.9
2018-Apr-23 02:30N 09°28' W 017°13'612.9
2018-Apr-23 02:00N 09°23' W 017°08'712.9
2018-Apr-23 01:30N 09°18' W 017°04'612.8
2018-Apr-23 01:00N 09°13' W 016°60'612.8
2018-Apr-23 00:30N 09°08' W 016°56'712.7
2018-Apr-22 23:59N 09°03' W 016°51'712.8
2018-Apr-22 23:27N 08°58' W 016°47'612.9
2018-Apr-22 23:00N 08°54' W 016°43'612.7
2018-Apr-22 22:30N 08°49' W 016°39'612.6
2018-Apr-22 22:00N 08°44' W 016°34'612.5
2018-Apr-22 21:30N 08°40' W 016°30'612.5
2018-Apr-22 21:00N 08°35' W 016°26'612.5
2018-Apr-22 20:30N 08°31' W 016°21'612.6
2018-Apr-22 20:00N 08°26' W 016°17'612.6
2018-Apr-22 19:30N 08°21' W 016°13'612.4
2018-Apr-22 19:00N 08°17' W 016°09'612.6
2018-Apr-22 18:30N 08°12' W 016°05'712.7
2018-Apr-22 17:56N 08°06' W 016°00'612.7
2018-Apr-22 17:26N 08°01' W 015°56'512.5
2018-Apr-22 17:00N 07°57' W 015°53'612.8
2018-Apr-22 16:30N 07°52' W 015°49'612.8
2018-Apr-22 16:00N 07°47' W 015°44'1712.8
2018-Apr-22 14:41N 07°35' W 015°33'313.1
2018-Apr-22 14:29N 07°33' W 015°31'713.0
2018-Apr-22 13:59N 07°28' W 015°27'712.9
2018-Apr-22 13:28N 07°23' W 015°23'613.0
2018-Apr-22 13:00N 07°18' W 015°19'712.9
2018-Apr-22 12:30N 07°13' W 015°14'612.9
2018-Apr-22 12:00N 07°09' W 015°10'612.9
2018-Apr-22 11:30N 07°04' W 015°06'  
2018-Apr-18 11:24N 05°07' E 000°23'712.5
2018-Apr-18 10:51N 05°13' E 000°19'412.7
2018-Apr-18 10:31N 05°16' E 000°17'612.8
2018-Apr-18 10:01N 05°22' E 000°14'712.9
2018-Apr-18 09:30N 05°28' E 000°11'612.0
2018-Apr-18 09:01N 05°33' E 000°09'510.6
2018-Apr-18 08:30N 05°38' E 000°06'2 3.9
2018-Apr-18 07:59N 05°39' E 000°04'0 0.1
2018-Apr-18 07:29N 05°39' E 000°04'0 0.0
2018-Apr-18 06:56N 05°39' E 000°04'0 0.0
2018-Apr-18 06:29N 05°39' E 000°04'0 0.0
2018-Apr-18 05:59N 05°39' E 000°04'0 0.0
2018-Apr-18 05:29N 05°39' E 000°04'0 0.0
2018-Apr-18 04:59N 05°39' E 000°04'0 0.0
2018-Apr-18 04:29N 05°39' E 000°04'0 0.0
2018-Apr-18 03:59N 05°39' E 000°04'0 0.0
2018-Apr-18 03:29N 05°39' E 000°04'0 0.0
2018-Apr-18 02:59N 05°39' E 000°04'0 0.0
2018-Apr-18 02:29N 05°39' E 000°04'0 0.0
2018-Apr-18 01:59N 05°39' E 000°04'0 0.0
2018-Apr-18 01:29N 05°39' E 000°04'0 0.0
2018-Apr-18 00:59N 05°39' E 000°04'0 0.0
2018-Apr-18 00:29N 05°39' E 000°04'0 0.0
2018-Apr-17 23:59N 05°39' E 000°04'0 0.0
2018-Apr-17 23:29N 05°39' E 000°04'0 0.0
2018-Apr-17 22:59N 05°39' E 000°04'0 0.0
2018-Apr-17 22:29N 05°39' E 000°04'0 0.0
2018-Apr-17 21:59N 05°39' E 000°04'0 0.0
2018-Apr-17 21:29N 05°39' E 000°04'0 0.0
2018-Apr-17 20:59N 05°39' E 000°04'0 0.0
2018-Apr-17 20:29N 05°39' E 000°04'0 0.0
2018-Apr-17 19:59N 05°39' E 000°04'0 0.0
2018-Apr-17 19:29N 05°39' E 000°04'0 0.0
2018-Apr-17 18:59N 05°39' E 000°04'0 0.0
2018-Apr-17 18:29N 05°39' E 000°04'0 0.0
2018-Apr-17 17:59N 05°39' E 000°04'0 0.0
2018-Apr-17 17:29N 05°39' E 000°04'0 0.0
2018-Apr-17 16:59N 05°39' E 000°04'0 0.0
2018-Apr-17 16:29N 05°39' E 000°04'0 0.0
2018-Apr-17 15:59N 05°39' E 000°04'0 0.0
2018-Apr-17 15:29N 05°39' E 000°04'0 0.0
2018-Apr-17 14:59N 05°39' E 000°04'0 0.0
2018-Apr-17 14:29N 05°39' E 000°04'0 0.0
2018-Apr-17 13:59N 05°39' E 000°04'0 0.0
2018-Apr-17 13:29N 05°39' E 000°04'0 0.0
2018-Apr-17 12:59N 05°39' E 000°04'0 0.0
2018-Apr-17 12:29N 05°39' E 000°04'0 0.0
2018-Apr-17 11:59N 05°39' E 000°04'0 0.0
2018-Apr-17 11:29N 05°39' E 000°04'0 0.0
2018-Apr-17 10:59N 05°39' E 000°04'0 0.0
2018-Apr-17 10:29N 05°39' E 000°04'0 0.0
2018-Apr-17 09:59N 05°39' E 000°04'0 0.0
2018-Apr-17 09:29N 05°39' E 000°04'0 0.0
2018-Apr-17 08:59N 05°39' E 000°04'0 0.0
2018-Apr-17 08:29N 05°39' E 000°04'0 0.0
2018-Apr-17 07:59N 05°39' E 000°04'0 0.0
2018-Apr-17 07:29N 05°39' E 000°04'0 0.0
2018-Apr-17 06:59N 05°39' E 000°04'0 0.0
2018-Apr-17 06:29N 05°39' E 000°04'0 0.0
2018-Apr-17 05:59N 05°39' E 000°04'0 0.0
2018-Apr-17 05:29N 05°39' E 000°04'0 0.0
2018-Apr-17 04:59N 05°39' E 000°04'0 0.0
2018-Apr-17 04:29N 05°39' E 000°04'0 0.0
2018-Apr-17 03:59N 05°39' E 000°04'0 0.0
2018-Apr-17 03:29N 05°39' E 000°04'0 0.0
2018-Apr-17 02:59N 05°39' E 000°04'0 0.0
2018-Apr-17 02:29N 05°39' E 000°04'0 0.0
2018-Apr-17 01:59N 05°39' E 000°04'0 0.0
2018-Apr-17 01:29N 05°39' E 000°04'0 0.0
2018-Apr-17 00:59N 05°39' E 000°04'0 0.0
2018-Apr-17 00:29N 05°39' E 000°04'0 0.0
2018-Apr-16 23:59N 05°39' E 000°04'0 0.0
2018-Apr-16 23:29N 05°39' E 000°04'0 0.0
2018-Apr-16 22:59N 05°39' E 000°04'0 0.0
2018-Apr-16 22:29N 05°39' E 000°04'0 0.0
2018-Apr-16 21:59N 05°39' E 000°04'0 0.0
2018-Apr-16 21:29N 05°39' E 000°04'0 0.0
2018-Apr-16 20:59N 05°39' E 000°04'0 0.0
2018-Apr-16 20:29N 05°39' E 000°04'0 0.0
2018-Apr-16 19:59N 05°39' E 000°04'0 0.0
2018-Apr-16 19:29N 05°39' E 000°04'0 0.0
2018-Apr-16 18:59N 05°39' E 000°04'0 0.0
2018-Apr-16 18:29N 05°39' E 000°04'0 0.0
2018-Apr-16 17:59N 05°39' E 000°04'0 0.0
2018-Apr-16 17:29N 05°39' E 000°04'0 0.0
2018-Apr-16 16:59N 05°39' E 000°04'0 0.0
2018-Apr-16 16:29N 05°39' E 000°04'0 0.0
2018-Apr-16 15:59N 05°39' E 000°04'0 0.0
2018-Apr-16 15:29N 05°39' E 000°04'0 0.0
2018-Apr-16 14:59N 05°39' E 000°04'0 0.0
2018-Apr-16 14:29N 05°39' E 000°04'0 0.0
2018-Apr-16 13:59N 05°39' E 000°04'0 0.0
2018-Apr-16 12:38N 05°39' E 000°04'0 0.0
2018-Apr-16 12:29N 05°39' E 000°04'0 0.0
2018-Apr-16 11:59N 05°39' E 000°04'0 0.0
2018-Apr-16 11:29N 05°39' E 000°04'0 0.0
2018-Apr-16 10:59N 05°39' E 000°04'0 0.0
2018-Apr-16 10:29N 05°39' E 000°04'0 0.0
2018-Apr-16 09:56N 05°39' E 000°04'0 0.0
2018-Apr-16 09:29N 05°39' E 000°04'0 0.0
2018-Apr-16 08:59N 05°39' E 000°04'0 0.0
2018-Apr-16 08:29N 05°39' E 000°04'0 0.0
2018-Apr-16 07:59N 05°39' E 000°04'0 0.0
2018-Apr-16 07:29N 05°39' E 000°04'0 0.0
2018-Apr-16 06:59N 05°39' E 000°04'0 0.0
2018-Apr-16 06:29N 05°39' E 000°04'0 0.0
2018-Apr-16 05:59N 05°39' E 000°04'0 0.0
2018-Apr-16 05:29N 05°39' E 000°04'0 0.0
2018-Apr-16 04:59N 05°39' E 000°04'0 0.0
2018-Apr-16 04:29N 05°39' E 000°04'0 0.0
2018-Apr-16 03:59N 05°39' E 000°04'0 0.0
2018-Apr-16 03:29N 05°39' E 000°04'0 0.0
2018-Apr-16 02:59N 05°39' E 000°04'0 0.0
2018-Apr-16 02:29N 05°39' E 000°04'0 0.0
2018-Apr-16 01:59N 05°39' E 000°04'0 0.0
2018-Apr-16 01:29N 05°39' E 000°04'0 0.0
2018-Apr-16 00:59N 05°39' E 000°04'0 0.0
2018-Apr-16 00:29N 05°39' E 000°04'0 0.0
2018-Apr-15 23:59N 05°39' E 000°04'0 0.0
2018-Apr-15 23:29N 05°39' E 000°04'0 0.0
2018-Apr-15 22:59N 05°39' E 000°04'0 0.0
2018-Apr-15 22:29N 05°39' E 000°04'0 0.0
2018-Apr-15 21:59N 05°39' E 000°04'0 0.0
2018-Apr-15 21:29N 05°39' E 000°04'0 0.0
2018-Apr-15 20:59N 05°39' E 000°04'0 0.0
2018-Apr-15 20:29N 05°39' E 000°04'0 0.0
2018-Apr-15 19:59N 05°39' E 000°04'0 0.0
2018-Apr-15 19:29N 05°39' E 000°04'0 0.0
2018-Apr-15 18:59N 05°39' E 000°04'0 0.0
2018-Apr-15 18:29N 05°39' E 000°04'0 0.0
2018-Apr-15 17:59N 05°39' E 000°04'0 0.0
2018-Apr-15 17:29N 05°39' E 000°04'0 0.0
2018-Apr-15 16:59N 05°39' E 000°04'0 0.0
2018-Apr-15 16:29N 05°39' E 000°04'0 0.0
2018-Apr-15 15:59N 05°39' E 000°04'0 0.0
2018-Apr-15 15:29N 05°39' E 000°04'0 0.0
2018-Apr-15 14:59N 05°39' E 000°04'0 0.0
2018-Apr-15 14:29N 05°39' E 000°04'0 0.0
2018-Apr-15 13:59N 05°39' E 000°04'0 0.0
2018-Apr-15 13:29N 05°39' E 000°04'0 0.0
2018-Apr-15 12:59N 05°39' E 000°04'0 0.0
2018-Apr-15 12:29N 05°39' E 000°04'0 0.0
2018-Apr-15 12:00N 05°39' E 000°04'0 0.4
2018-Apr-15 11:30N 05°39' E 000°04'1 1.6
2018-Apr-15 11:00N 05°39' E 000°05'1 1.6
2018-Apr-15 10:30N 05°39' E 000°06'0 0.9
2018-Apr-15 10:00N 05°38' E 000°06'3 6.9
2018-Apr-15 09:31N 05°35' E 000°04'4 7.9
2018-Apr-15 09:00N 05°34' E 000°00'0 0.4
2018-Apr-15 08:29N 05°35' E 000°00'0 0.0
2018-Apr-15 07:59N 05°35' E 000°00'0 0.0
2018-Apr-15 07:29N 05°35' E 000°00'0 0.0
2018-Apr-15 06:59N 05°35' E 000°00'0 0.0
2018-Apr-15 06:29N 05°35' E 000°00'0 0.0
2018-Apr-15 05:59N 05°35' E 000°00'0 0.0
2018-Apr-15 05:29N 05°35' E 000°00'0 0.1
2018-Apr-15 04:56N 05°35' E 000°00'0 0.0
2018-Apr-15 04:29N 05°35' E 000°00'0 0.0
2018-Apr-15 03:59N 05°35' E 000°00'0 0.0
2018-Apr-15 03:29N 05°35' E 000°00'0 0.0
2018-Apr-15 02:59N 05°35' E 000°00'0 0.0
2018-Apr-15 02:29N 05°35' E 000°00'0 0.0
2018-Apr-15 01:59N 05°35' E 000°00'0 0.0
2018-Apr-15 01:29N 05°35' E 000°00'0 0.0
2018-Apr-15 00:59N 05°35' E 000°00'0 0.0
2018-Apr-15 00:29N 05°35' E 000°00'0 0.0
2018-Apr-14 23:59N 05°35' E 000°00'0 0.0
2018-Apr-14 23:29N 05°35' E 000°00'0 0.0
2018-Apr-14 22:59N 05°35' E 000°00'0 0.0
2018-Apr-14 22:29N 05°35' E 000°00'0 0.0
2018-Apr-14 21:59N 05°35' E 000°00'0 0.0
2018-Apr-14 21:29N 05°35' E 000°00'0 0.0
2018-Apr-14 20:59N 05°35' E 000°00'0 0.0
2018-Apr-14 20:29N 05°35' E 000°00'0 0.0
2018-Apr-14 19:59N 05°35' E 000°00'0 0.0
2018-Apr-14 19:29N 05°35' E 000°00'0 0.0
2018-Apr-14 18:59N 05°35' E 000°00'0 0.0
2018-Apr-14 18:29N 05°35' E 000°00'0 0.0
2018-Apr-14 17:59N 05°35' E 000°00'0 0.0
2018-Apr-14 17:29N 05°35' E 000°00'0 0.0
2018-Apr-14 16:59N 05°35' E 000°00'0 0.0
2018-Apr-14 16:29N 05°35' E 000°00'0 0.0
2018-Apr-14 15:59N 05°35' E 000°00'0 0.0
2018-Apr-14 15:29N 05°35' E 000°00'0 0.0
2018-Apr-14 14:59N 05°35' E 000°00'0 0.0
2018-Apr-14 14:29N 05°35' E 000°00'0 0.0
2018-Apr-14 13:59N 05°35' E 000°00'0 0.0
2018-Apr-14 13:29N 05°35' E 000°00'0 0.0
2018-Apr-14 12:59N 05°35' E 000°00'0 0.0
2018-Apr-14 12:29N 05°35' E 000°00'0 0.0
2018-Apr-14 11:59N 05°35' E 000°00'0 0.0
2018-Apr-14 11:29N 05°35' E 000°00'0 0.0
2018-Apr-14 10:59N 05°35' E 000°00'0 0.0
2018-Apr-14 10:29N 05°35' E 000°00'0 0.0
2018-Apr-14 09:59N 05°35' E 000°00'0 0.0
2018-Apr-14 09:29N 05°35' E 000°00'0 0.0
2018-Apr-14 08:59N 05°35' E 000°00'0 0.0
2018-Apr-14 08:29N 05°35' E 000°00'0 0.0
2018-Apr-14 07:59N 05°35' E 000°00'0 0.0
2018-Apr-14 07:29N 05°35' E 000°00'0 0.0
2018-Apr-14 06:59N 05°35' E 000°00'0 0.0
2018-Apr-14 06:29N 05°35' E 000°00'0 0.0
2018-Apr-14 05:59N 05°35' E 000°00'0 0.0
2018-Apr-14 05:29N 05°35' E 000°00'0 0.0
2018-Apr-14 04:59N 05°35' E 000°00'0 0.0
2018-Apr-14 04:29N 05°35' E 000°00'0 0.0
2018-Apr-14 03:59N 05°35' E 000°00'0 0.0
2018-Apr-14 03:29N 05°35' E 000°00'0 0.0
2018-Apr-14 02:59N 05°35' E 000°00'0 0.0
2018-Apr-14 02:29N 05°35' E 000°00'0 0.0
2018-Apr-14 01:59N 05°35' E 000°00'0 0.0
2018-Apr-14 01:29N 05°35' E 000°00'0 0.0
2018-Apr-14 00:59N 05°35' E 000°00'0 0.0
2018-Apr-14 00:29N 05°35' E 000°00'0 0.0
2018-Apr-13 23:59N 05°35' E 000°00'0 0.0
2018-Apr-13 23:29N 05°35' E 000°00'0 0.0
2018-Apr-13 22:59N 05°35' E 000°00'0 0.0
2018-Apr-13 22:29N 05°35' E 000°00'0 0.0
2018-Apr-13 21:59N 05°35' E 000°00'0 0.0
2018-Apr-13 21:29N 05°35' E 000°00'0 0.0
2018-Apr-13 20:59N 05°35' E 000°00'0 0.0
2018-Apr-13 20:29N 05°35' E 000°00'0 0.0
2018-Apr-13 19:59N 05°35' E 000°00'0 0.0
2018-Apr-13 19:29N 05°35' E 000°00'0 0.0
2018-Apr-13 18:59N 05°35' E 000°00'0 0.0
2018-Apr-13 18:29N 05°35' E 000°00'0 0.0
2018-Apr-13 17:59N 05°35' E 000°00'0 0.0
2018-Apr-13 17:29N 05°35' E 000°00'0 0.0
2018-Apr-13 16:59N 05°35' E 000°00'0 0.0
2018-Apr-13 16:29N 05°35' E 000°00'0 0.0
2018-Apr-13 15:59N 05°35' E 000°00'0 0.0
2018-Apr-13 15:29N 05°35' E 000°00'0 0.0
2018-Apr-13 14:59N 05°35' E 000°00'0 0.0
2018-Apr-13 14:29N 05°35' E 000°00'0 0.0
2018-Apr-13 13:59N 05°35' E 000°00'0 0.0
2018-Apr-13 13:29N 05°35' E 000°00'0 0.0
2018-Apr-13 12:59N 05°35' E 000°00'  

Dump ship's entire track history